createdAt,value
2023-12-15T00:01:06.110Z,7.90
2023-12-15T00:03:32.803Z,10.55
2023-12-15T00:05:59.492Z,6.50
2023-12-15T00:08:27.616Z,9.20
2023-12-15T00:10:54.277Z,6.55
2023-12-15T00:13:20.923Z,8.80
2023-12-15T00:15:47.482Z,9.07
2023-12-15T00:18:14.358Z,7.13
2023-12-15T00:20:41.170Z,7.57
2023-12-15T00:23:07.870Z,10.38
2023-12-15T00:25:34.517Z,9.32
2023-12-15T00:28:01.169Z,6.40
2023-12-15T00:30:27.793Z,9.40
2023-12-15T00:32:54.444Z,6.80
2023-12-15T00:35:21.270Z,8.80
2023-12-15T00:37:47.862Z,8.80
2023-12-15T00:40:14.540Z,7.72
2023-12-15T00:42:41.184Z,7.32
2023-12-15T00:45:08.414Z,8.18
2023-12-15T00:47:35.498Z,9.13
2023-12-15T00:50:02.557Z,8.40
2023-12-15T00:52:29.144Z,7.28
2023-12-15T00:54:55.807Z,7.53
2023-12-15T00:57:22.468Z,9.93
2023-12-15T00:59:50.036Z,9.25
2023-12-15T01:02:16.694Z,12.10
2023-12-15T01:04:43.295Z,8.20
2023-12-15T01:07:09.863Z,8.52
2023-12-15T01:09:37.592Z,8.38
2023-12-15T01:12:04.721Z,9.80
2023-12-15T01:14:31.408Z,7.97
2023-12-15T01:16:58.120Z,8.77
2023-12-15T01:19:24.788Z,10.10
2023-12-15T01:21:51.409Z,8.77
2023-12-15T01:24:18.006Z,9.50
2023-12-15T01:26:44.634Z,8.85
2023-12-15T01:29:11.327Z,9.30
2023-12-15T01:31:37.977Z,9.13
2023-12-15T01:34:04.731Z,12.20
2023-12-15T01:36:31.394Z,10.27
2023-12-15T01:38:58.053Z,8.52
2023-12-15T01:41:24.831Z,12.52
2023-12-15T01:43:51.492Z,10.50
2023-12-15T01:46:18.183Z,9.32
2023-12-15T01:48:45.017Z,11.85
2023-12-15T01:51:11.684Z,8.75
2023-12-15T01:53:38.271Z,10.45
2023-12-15T01:56:05.337Z,9.43
2023-12-15T01:58:31.938Z,9.68
2023-12-15T02:00:58.906Z,11.75
2023-12-15T02:03:25.583Z,8.52
2023-12-15T02:05:52.310Z,9.23
2023-12-15T02:08:19.013Z,13.10
2023-12-15T02:10:45.880Z,8.70
2023-12-15T02:13:12.452Z,6.90
2023-12-15T02:15:39.083Z,7.63
2023-12-15T02:18:05.839Z,6.75
2023-12-15T02:20:32.526Z,9.88
2023-12-15T02:23:00.538Z,11.50
2023-12-15T02:25:27.398Z,7.13
2023-12-15T02:27:54.907Z,6.55
2023-12-15T02:30:21.546Z,10.02
2023-12-15T02:32:48.316Z,8.20
2023-12-15T02:35:15.635Z,8.73
2023-12-15T02:37:42.402Z,7.55
2023-12-15T02:40:09.415Z,8.90
2023-12-15T02:42:35.986Z,7.90
2023-12-15T02:45:02.623Z,6.93
2023-12-15T02:47:30.141Z,10.07
2023-12-15T02:49:56.987Z,7.88
2023-12-15T02:52:23.617Z,15.57
2023-12-15T02:54:50.251Z,13.68
2023-12-15T02:57:16.817Z,10.18
2023-12-15T02:59:43.629Z,8.30
2023-12-15T03:02:10.537Z,8.65
2023-12-15T03:04:37.141Z,9.82
2023-12-15T03:07:04.291Z,7.80
2023-12-15T03:09:30.903Z,7.25
2023-12-15T03:11:58.027Z,6.28
2023-12-15T03:14:24.665Z,6.07
2023-12-15T03:16:51.429Z,7.15
2023-12-15T03:19:18.159Z,6.00
2023-12-15T03:21:44.764Z,6.20
2023-12-15T03:24:11.373Z,5.45
2023-12-15T03:26:37.967Z,5.55
2023-12-15T03:29:04.685Z,8.98
2023-12-15T03:31:31.294Z,6.85
2023-12-15T03:33:57.923Z,4.53
2023-12-15T03:36:27.590Z,6.07
2023-12-15T03:38:54.303Z,9.55
2023-12-15T03:41:20.891Z,7.35
2023-12-15T03:43:47.463Z,7.22
2023-12-15T03:46:14.174Z,8.73
2023-12-15T03:48:40.804Z,7.65
2023-12-15T03:51:07.562Z,6.05
2023-12-15T03:53:34.197Z,14.65
2023-12-15T03:56:00.937Z,6.97
2023-12-15T03:58:27.545Z,5.80
2023-12-15T04:00:54.204Z,5.75
2023-12-15T04:03:20.937Z,7.07
2023-12-15T04:05:47.632Z,7.28
2023-12-15T04:08:14.475Z,8.95
2023-12-15T04:10:41.089Z,6.38
2023-12-15T04:13:07.864Z,7.10
2023-12-15T04:15:34.508Z,9.27
2023-12-15T04:18:05.613Z,5.65
2023-12-15T04:20:32.624Z,6.68
2023-12-15T04:22:59.911Z,6.72
2023-12-15T04:25:26.512Z,7.85
2023-12-15T04:27:53.190Z,7.38
2023-12-15T04:30:19.904Z,5.57
2023-12-15T04:32:46.537Z,7.65
2023-12-15T04:35:13.218Z,7.13
2023-12-15T04:37:39.828Z,7.22
2023-12-15T04:40:06.819Z,6.75
2023-12-15T04:42:33.399Z,7.47
2023-12-15T04:45:00.042Z,7.25
2023-12-15T04:47:26.664Z,7.40
2023-12-15T04:49:53.272Z,10.80
2023-12-15T04:52:19.949Z,8.95
2023-12-15T04:54:46.508Z,7.35
2023-12-15T04:57:13.074Z,9.70
2023-12-15T04:59:42.275Z,7.20
2023-12-15T05:02:09.348Z,8.45
2023-12-15T05:04:38.433Z,9.70
2023-12-15T05:07:05.837Z,8.50
2023-12-15T05:09:32.438Z,9.38
2023-12-15T05:11:59.031Z,7.30
2023-12-15T05:14:25.701Z,12.20
2023-12-15T05:16:52.284Z,8.55
2023-12-15T05:19:18.917Z,6.53
2023-12-15T05:21:45.677Z,7.50
2023-12-15T05:24:12.307Z,8.43
2023-12-15T05:26:38.932Z,9.23
2023-12-15T05:29:05.876Z,8.15
2023-12-15T05:31:32.511Z,9.70
2023-12-15T05:33:59.175Z,10.88
2023-12-15T05:36:25.885Z,10.02
2023-12-15T05:38:54.113Z,10.93
2023-12-15T05:41:21.009Z,9.45
2023-12-15T05:43:47.744Z,11.00
2023-12-15T05:46:15.754Z,9.02
2023-12-15T05:48:42.452Z,12.82
2023-12-15T05:51:09.241Z,11.32
2023-12-15T05:53:48.454Z,8.07
2023-12-15T05:56:22.071Z,9.15
2023-12-15T05:58:49.918Z,9.30
2023-12-15T06:01:16.733Z,15.38
2023-12-15T06:03:43.424Z,9.75
2023-12-15T06:06:13.628Z,12.10
2023-12-15T06:08:42.814Z,12.45
2023-12-15T06:11:09.470Z,9.45
2023-12-15T06:13:36.110Z,14.45
2023-12-15T06:16:03.050Z,11.38
2023-12-15T06:18:29.827Z,12.80
2023-12-15T06:20:56.554Z,9.73
2023-12-15T06:23:23.209Z,10.32
2023-12-15T06:25:49.847Z,11.27
2023-12-15T06:28:16.417Z,9.07
2023-12-15T06:30:43.127Z,8.95
2023-12-15T06:33:09.928Z,9.95
2023-12-15T06:35:36.689Z,10.35
2023-12-15T06:38:03.360Z,10.20
2023-12-15T06:40:30.050Z,8.65
2023-12-15T06:42:56.769Z,10.40
2023-12-15T06:45:23.364Z,7.85
2023-12-15T06:47:53.275Z,8.32
2023-12-15T06:50:20.070Z,8.70
2023-12-15T06:52:50.296Z,9.98
2023-12-15T06:55:16.987Z,8.10
2023-12-15T06:57:43.563Z,9.55
2023-12-15T07:00:11.174Z,10.32
2023-12-15T07:02:37.853Z,10.75
2023-12-15T07:05:04.898Z,9.70
2023-12-15T07:07:31.656Z,7.97
2023-12-15T07:09:58.337Z,9.05
2023-12-15T07:12:24.920Z,10.27
2023-12-15T07:14:51.487Z,9.52
2023-12-15T07:17:18.107Z,10.43
2023-12-15T07:19:44.911Z,11.90
2023-12-15T07:22:11.514Z,10.00
2023-12-15T07:24:38.091Z,8.88
2023-12-15T07:27:05.766Z,10.30
2023-12-15T07:29:32.452Z,9.23
2023-12-15T07:31:59.266Z,11.55
2023-12-15T07:34:25.991Z,9.00
2023-12-15T07:36:52.706Z,9.27
2023-12-15T07:39:22.439Z,9.65
2023-12-15T07:41:49.742Z,9.60
2023-12-15T07:44:17.044Z,9.57
2023-12-15T07:46:45.081Z,9.43
2023-12-15T07:49:12.040Z,11.45
2023-12-15T07:51:38.724Z,11.82
2023-12-15T07:54:05.598Z,10.82
2023-12-15T07:56:32.292Z,8.95
2023-12-15T07:58:58.877Z,10.27
2023-12-15T08:01:25.877Z,9.88
2023-12-15T08:03:52.589Z,13.13
2023-12-15T08:06:19.814Z,12.90
2023-12-15T08:08:48.268Z,10.57
2023-12-15T08:11:15.005Z,14.35
2023-12-15T08:13:42.405Z,12.77
2023-12-15T08:16:14.058Z,12.20
2023-12-15T08:18:45.179Z,12.00
2023-12-15T08:21:12.616Z,13.73
2023-12-15T08:23:39.397Z,10.80
2023-12-15T08:26:06.265Z,11.70
2023-12-15T08:28:32.956Z,13.02
2023-12-15T08:31:00.194Z,10.73
2023-12-15T08:33:28.734Z,12.85
2023-12-15T08:35:55.592Z,11.40
2023-12-15T08:38:22.257Z,10.38
2023-12-15T08:40:48.949Z,12.35
2023-12-15T08:43:15.605Z,9.93
2023-12-15T08:45:42.208Z,12.00
2023-12-15T08:48:09.539Z,12.68
2023-12-15T08:50:36.438Z,10.73
2023-12-15T08:53:03.611Z,11.70
2023-12-15T08:55:30.649Z,11.20
2023-12-15T08:57:57.426Z,12.07
2023-12-15T09:00:24.725Z,8.38
2023-12-15T09:02:53.744Z,10.52
2023-12-15T09:05:38.764Z,10.82
2023-12-15T09:08:11.562Z,9.18
2023-12-15T09:10:43.468Z,10.77
2023-12-15T09:13:10.963Z,9.65
2023-12-15T09:15:37.565Z,13.38
2023-12-15T09:18:04.693Z,11.07
2023-12-15T09:20:31.949Z,10.75
2023-12-15T09:22:58.606Z,9.90
2023-12-15T09:25:25.255Z,9.45
2023-12-15T09:27:51.957Z,11.00
2023-12-15T09:30:18.684Z,8.80
2023-12-15T09:32:45.525Z,9.75
2023-12-15T09:35:12.212Z,10.70
2023-12-15T09:37:39.012Z,15.15
2023-12-15T09:40:06.474Z,11.18
2023-12-15T09:42:33.088Z,10.15
2023-12-15T09:45:06.752Z,9.38
2023-12-15T09:47:37.525Z,9.15
2023-12-15T09:50:06.938Z,11.35
2023-12-15T09:52:35.647Z,9.93
2023-12-15T09:55:03.558Z,10.63
2023-12-15T09:57:30.950Z,10.82
2023-12-15T09:59:58.373Z,10.40
2023-12-15T10:02:26.472Z,11.55
2023-12-15T10:04:54.045Z,11.32
2023-12-15T10:07:20.663Z,10.10
2023-12-15T10:09:48.175Z,11.60
2023-12-15T10:12:14.731Z,7.85
2023-12-15T10:14:41.434Z,9.98
2023-12-15T10:17:12.020Z,9.27
2023-12-15T10:19:39.156Z,10.95
2023-12-15T10:22:07.048Z,10.88
2023-12-15T10:24:35.074Z,10.07
2023-12-15T10:27:03.732Z,11.65
2023-12-15T10:29:31.035Z,10.65
2023-12-15T10:31:59.153Z,11.30
2023-12-15T10:34:27.884Z,10.55
2023-12-15T10:36:55.352Z,10.30
2023-12-15T10:39:23.388Z,8.98
2023-12-15T10:41:52.974Z,11.80
2023-12-15T10:44:22.119Z,9.63
2023-12-15T10:46:49.387Z,8.90
2023-12-15T10:49:16.810Z,12.20
2023-12-15T10:51:44.563Z,18.02
2023-12-15T10:54:11.298Z,11.30
2023-12-15T10:56:39.269Z,10.13
2023-12-15T10:59:07.033Z,10.05
2023-12-15T11:01:36.967Z,14.73
2023-12-15T11:04:17.454Z,11.38
2023-12-15T11:06:44.342Z,11.82
2023-12-15T11:09:11.685Z,12.98
2023-12-15T11:11:39.168Z,12.90
2023-12-15T11:14:05.992Z,11.35
2023-12-15T11:16:36.688Z,10.15
2023-12-15T11:19:03.923Z,13.80
2023-12-15T11:21:31.328Z,9.27
2023-12-15T11:24:00.876Z,10.65
2023-12-15T11:26:30.886Z,11.48
2023-12-15T11:29:03.772Z,12.05
2023-12-15T11:31:31.806Z,10.65
2023-12-15T11:33:58.493Z,10.10
2023-12-15T11:36:29.063Z,10.30
2023-12-15T11:38:55.829Z,10.50
2023-12-15T11:41:24.315Z,9.65
2023-12-15T11:43:52.075Z,9.57
2023-12-15T11:46:22.428Z,9.80
2023-12-15T11:48:49.183Z,10.20
2023-12-15T11:51:16.139Z,10.48
2023-12-15T11:53:43.904Z,9.98
2023-12-15T11:56:11.401Z,14.07
2023-12-15T11:58:38.859Z,11.35
2023-12-15T12:01:06.249Z,9.32
2023-12-15T12:03:32.996Z,39.83
2023-12-15T12:06:00.373Z,17.98
2023-12-15T12:08:27.161Z,10.80
2023-12-15T12:11:01.602Z,15.70
2023-12-15T12:13:37.358Z,10.63
2023-12-15T12:16:05.137Z,12.70
2023-12-15T12:18:32.790Z,10.13
2023-12-15T12:21:05.347Z,8.57
2023-12-15T12:26:13.111Z,11.07
2023-12-15T12:28:46.657Z,12.57
2023-12-15T12:31:13.888Z,12.32
2023-12-15T12:33:40.537Z,11.77
2023-12-15T12:36:08.889Z,13.75
2023-12-15T12:38:38.643Z,12.45
2023-12-15T12:41:07.411Z,12.57
2023-12-15T12:43:34.821Z,11.02
2023-12-15T12:46:01.761Z,11.05
2023-12-15T12:48:29.860Z,9.63
2023-12-15T12:50:56.806Z,14.00
2023-12-15T12:53:23.502Z,13.50
2023-12-15T12:55:50.109Z,13.25
2023-12-15T12:58:18.050Z,12.02
2023-12-15T13:00:44.782Z,12.80
2023-12-15T13:03:11.826Z,11.45
2023-12-15T13:05:38.674Z,9.57
2023-12-15T13:08:05.483Z,10.98
2023-12-15T13:10:32.135Z,12.50
2023-12-15T13:12:58.694Z,8.60
2023-12-15T13:15:25.468Z,13.63
2023-12-15T13:17:55.111Z,17.38
2023-12-15T13:20:25.946Z,12.23
2023-12-15T13:22:52.782Z,12.07
2023-12-15T13:25:19.711Z,14.15
2023-12-15T13:27:49.368Z,12.32
2023-12-15T13:30:16.545Z,12.95
2023-12-15T13:32:43.484Z,13.27
2023-12-15T13:35:10.727Z,12.95
2023-12-15T13:37:37.510Z,11.07
2023-12-15T13:40:05.362Z,10.63
2023-12-15T13:42:32.099Z,12.35
2023-12-15T13:44:58.823Z,12.50
2023-12-15T13:47:25.901Z,11.63
2023-12-15T13:49:52.689Z,13.40
2023-12-15T13:52:20.725Z,16.45
2023-12-15T13:54:47.624Z,11.05
2023-12-15T13:57:18.443Z,13.07
2023-12-15T13:59:45.151Z,11.85
2023-12-15T14:02:12.224Z,17.23
2023-12-15T14:04:38.807Z,11.80
2023-12-15T14:07:05.819Z,11.30
2023-12-15T14:09:32.757Z,12.07
2023-12-15T14:11:59.370Z,20.13
2023-12-15T14:14:26.225Z,14.57
2023-12-15T14:16:54.035Z,14.68
2023-12-15T14:19:20.782Z,13.15
2023-12-15T14:21:48.641Z,11.55
2023-12-15T14:24:19.550Z,12.18
2023-12-15T14:26:46.659Z,14.23
2023-12-15T14:29:13.628Z,13.32
2023-12-15T14:31:40.379Z,18.45
2023-12-15T14:34:07.283Z,17.40
2023-12-15T14:36:34.157Z,16.48
2023-12-15T14:39:00.936Z,15.15
2023-12-15T14:41:28.501Z,14.95
2023-12-15T14:43:55.390Z,17.38
2023-12-15T14:46:22.056Z,15.85
2023-12-15T14:48:49.190Z,16.92
2023-12-15T14:51:16.436Z,15.63
2023-12-15T14:53:43.174Z,17.92
2023-12-15T14:56:12.356Z,22.45
2023-12-15T14:58:40.795Z,14.48
2023-12-15T15:01:08.232Z,15.27
2023-12-15T15:03:35.343Z,16.30
2023-12-15T15:06:02.739Z,15.30
2023-12-15T15:08:33.488Z,14.10
2023-12-15T15:11:00.250Z,16.38
2023-12-15T15:13:27.152Z,17.02
2023-12-15T15:15:53.840Z,16.77
2023-12-15T15:18:22.218Z,14.38
2023-12-15T15:20:49.261Z,14.27
2023-12-15T15:23:16.113Z,14.27
2023-12-15T15:25:42.928Z,18.27
2023-12-15T15:28:09.635Z,16.30
2023-12-15T15:30:37.750Z,13.23
2023-12-15T15:33:04.549Z,12.85
2023-12-15T15:35:32.208Z,16.27
2023-12-15T15:38:00.143Z,13.88
2023-12-15T15:40:27.053Z,13.90
2023-12-15T15:42:53.811Z,16.27
2023-12-15T15:45:20.953Z,14.95
2023-12-15T15:47:48.833Z,15.93
2023-12-15T15:50:15.678Z,13.63
2023-12-15T15:52:42.332Z,15.57
2023-12-15T15:55:09.617Z,23.02
2023-12-15T15:57:37.427Z,13.48
2023-12-15T16:00:05.603Z,17.42
2023-12-15T16:02:32.489Z,20.95
2023-12-15T16:04:59.861Z,19.45
2023-12-15T16:07:26.573Z,14.73
2023-12-15T16:09:53.435Z,15.00
2023-12-15T16:12:20.780Z,16.98
2023-12-15T16:14:47.407Z,16.05
2023-12-15T16:17:13.998Z,16.80
2023-12-15T16:19:40.802Z,15.82
2023-12-15T16:22:07.717Z,16.25
2023-12-15T16:24:34.439Z,19.65
2023-12-15T16:27:01.051Z,14.80
2023-12-15T16:29:27.735Z,15.35
2023-12-15T16:31:54.855Z,13.80
2023-12-15T16:34:21.882Z,16.00
2023-12-15T16:36:48.606Z,13.43
2023-12-15T16:39:15.469Z,15.73
2023-12-15T16:41:42.394Z,15.73
2023-12-15T16:44:09.003Z,15.88
2023-12-15T16:46:36.353Z,16.80
2023-12-15T16:49:05.076Z,16.75
2023-12-15T16:51:36.949Z,16.05
2023-12-15T16:54:04.372Z,15.30
2023-12-15T16:56:31.320Z,16.33
2023-12-15T16:58:57.979Z,18.15
2023-12-15T17:01:25.378Z,16.58
2023-12-15T17:03:52.352Z,19.73
2023-12-15T17:06:19.006Z,16.15
2023-12-15T17:08:45.798Z,18.38
2023-12-15T17:11:13.376Z,19.60
2023-12-15T17:13:40.703Z,20.02
2023-12-15T17:16:14.063Z,15.88
2023-12-15T17:18:41.028Z,19.10
2023-12-15T17:21:13.093Z,18.55
2023-12-15T17:23:45.900Z,18.67
2023-12-15T17:26:17.748Z,17.20
2023-12-15T17:28:45.261Z,21.30
2023-12-15T17:31:12.247Z,16.48
2023-12-15T17:33:39.167Z,19.85
2023-12-15T17:36:06.014Z,21.90
2023-12-15T17:38:32.708Z,20.98
2023-12-15T17:40:59.370Z,16.90
2023-12-15T17:43:25.998Z,22.77
2023-12-15T17:45:53.094Z,23.00
2023-12-15T17:48:21.628Z,20.73
2023-12-15T17:50:49.528Z,24.67
2023-12-15T17:53:16.504Z,20.13
2023-12-15T17:55:43.802Z,22.40
2023-12-15T17:58:12.677Z,23.25
2023-12-15T18:00:43.298Z,27.33
2023-12-15T18:03:11.012Z,20.67
2023-12-15T18:05:37.752Z,25.17
2023-12-15T18:08:04.650Z,22.48
2023-12-15T18:10:31.489Z,21.58
2023-12-15T18:12:58.211Z,23.52
2023-12-15T18:15:25.063Z,19.80
2023-12-15T18:17:51.763Z,21.30
2023-12-15T18:20:19.488Z,23.00
2023-12-15T18:22:46.942Z,23.48
2023-12-15T18:25:16.305Z,19.92
2023-12-15T18:27:43.680Z,20.52
2023-12-15T18:30:11.293Z,20.50
2023-12-15T18:32:38.343Z,19.90
2023-12-15T18:35:05.849Z,21.90
2023-12-15T18:37:32.603Z,21.88
2023-12-15T18:39:59.339Z,20.52
2023-12-15T18:42:26.150Z,23.67
2023-12-15T18:44:52.857Z,22.48
2023-12-15T18:47:19.467Z,21.65
2023-12-15T18:49:46.471Z,23.25
2023-12-15T18:52:14.418Z,24.00
2023-12-15T18:54:41.049Z,20.27
2023-12-15T18:57:07.628Z,22.10
2023-12-15T18:59:34.286Z,19.42
2023-12-15T19:02:01.126Z,19.77
2023-12-15T19:04:28.861Z,19.00
2023-12-15T19:06:55.621Z,19.45
2023-12-15T19:09:22.202Z,20.77
2023-12-15T19:11:48.807Z,20.27
2023-12-15T19:14:15.962Z,17.30
2023-12-15T19:16:42.597Z,22.05
2023-12-15T19:19:10.360Z,22.05
2023-12-15T19:21:37.185Z,16.98
2023-12-15T19:24:06.317Z,19.42
2023-12-15T19:26:32.924Z,16.33
2023-12-15T19:29:01.456Z,15.75
2023-12-15T19:31:28.576Z,19.88
2023-12-15T19:33:56.283Z,16.65
2023-12-15T19:36:23.245Z,19.77
2023-12-15T19:38:49.959Z,16.05
2023-12-15T19:41:19.724Z,16.25
2023-12-15T19:43:47.481Z,17.63
2023-12-15T19:46:21.820Z,15.35
2023-12-15T19:48:48.674Z,19.33
2023-12-15T19:51:19.616Z,15.93
2023-12-15T19:53:46.523Z,18.30
2023-12-15T19:56:23.153Z,15.27
2023-12-15T19:58:50.672Z,14.88
2023-12-15T20:01:27.497Z,13.43
2023-12-15T20:03:58.538Z,18.85
2023-12-15T20:06:28.742Z,16.67
2023-12-15T20:08:57.383Z,16.83
2023-12-15T20:11:24.322Z,15.02
2023-12-15T20:13:51.049Z,20.15
2023-12-15T20:16:17.974Z,20.95
2023-12-15T20:18:44.722Z,20.15
2023-12-15T20:21:11.419Z,15.23
2023-12-15T20:23:39.528Z,16.70
2023-12-15T20:26:09.967Z,17.85
2023-12-15T20:28:37.177Z,15.32
2023-12-15T20:31:07.506Z,20.63
2023-12-15T20:33:34.496Z,19.38
2023-12-15T20:36:01.238Z,18.13
2023-12-15T20:38:28.681Z,13.85
2023-12-15T20:40:56.621Z,15.52
2023-12-15T20:43:23.997Z,15.32
2023-12-15T20:45:50.873Z,16.63
2023-12-15T20:48:17.817Z,14.27
2023-12-15T20:50:44.947Z,17.45
2023-12-15T20:53:11.550Z,14.93
2023-12-15T20:55:38.288Z,15.45
2023-12-15T20:58:05.664Z,14.77
2023-12-15T21:00:34.926Z,16.00
2023-12-15T21:03:02.006Z,18.35
2023-12-15T21:05:30.107Z,14.98
2023-12-15T21:07:59.550Z,15.55
2023-12-15T21:10:26.299Z,13.63
2023-12-15T21:12:53.341Z,17.20
2023-12-15T21:15:20.761Z,16.80
2023-12-15T21:17:47.638Z,14.52
2023-12-15T21:20:14.631Z,18.42
2023-12-15T21:22:42.673Z,14.85
2023-12-15T21:25:09.521Z,17.70
2023-12-15T21:27:36.481Z,15.95
2023-12-15T21:30:04.766Z,15.55
2023-12-15T21:32:31.534Z,14.90
2023-12-15T21:34:58.243Z,18.45
2023-12-15T21:37:24.885Z,22.58
2023-12-15T21:39:51.573Z,15.45
2023-12-15T21:42:18.256Z,16.83
2023-12-15T21:44:44.954Z,14.55
2023-12-15T21:47:11.690Z,18.35
2023-12-15T21:49:42.304Z,15.02
2023-12-15T21:52:10.579Z,18.92
2023-12-15T21:54:37.213Z,19.63
2023-12-15T21:57:08.025Z,14.93
2023-12-15T21:59:35.126Z,14.40
2023-12-15T22:02:01.901Z,17.48
2023-12-15T22:04:28.725Z,43.58
2023-12-15T22:06:57.120Z,18.50
2023-12-15T22:09:23.748Z,14.60
2023-12-15T22:11:50.368Z,14.32
2023-12-15T22:14:17.822Z,17.10
2023-12-15T22:16:46.636Z,18.00
2023-12-15T22:19:13.342Z,15.90
2023-12-15T22:21:40.527Z,14.52
2023-12-15T22:24:07.401Z,16.55
2023-12-15T22:26:34.001Z,16.15
2023-12-15T22:29:00.597Z,14.57
2023-12-15T22:31:27.248Z,18.73
2023-12-15T22:33:54.074Z,16.67
2023-12-15T22:36:22.906Z,15.88
2023-12-15T22:38:49.951Z,17.80
2023-12-15T22:41:16.763Z,15.25
2023-12-15T22:43:43.361Z,19.38
2023-12-15T22:46:10.026Z,14.48
2023-12-15T22:48:36.688Z,13.90
2023-12-15T22:51:06.671Z,16.70
2023-12-15T22:53:36.365Z,17.33
2023-12-15T22:56:09.393Z,19.27
2023-12-15T22:58:36.801Z,16.73
2023-12-15T23:01:03.978Z,16.75
2023-12-15T23:03:30.781Z,13.77
2023-12-15T23:05:58.520Z,14.82
2023-12-15T23:08:26.809Z,13.93
2023-12-15T23:10:53.489Z,13.77
2023-12-15T23:13:20.151Z,11.32
2023-12-15T23:15:46.914Z,13.38
2023-12-15T23:18:13.943Z,15.88
2023-12-15T23:20:40.588Z,13.95
2023-12-15T23:23:07.160Z,15.70
2023-12-15T23:25:33.788Z,13.45
2023-12-15T23:28:00.956Z,13.35
2023-12-15T23:30:27.829Z,15.70
2023-12-15T23:32:54.548Z,15.85
2023-12-15T23:35:21.567Z,15.18
2023-12-15T23:37:48.128Z,15.98
2023-12-15T23:40:14.844Z,16.63
2023-12-15T23:42:41.587Z,15.20
2023-12-15T23:45:08.620Z,13.60
2023-12-15T23:47:35.505Z,14.88
2023-12-15T23:50:02.278Z,15.70
2023-12-15T23:52:28.901Z,13.00
2023-12-15T23:54:57.143Z,17.08
2023-12-15T23:57:23.858Z,12.98
2023-12-15T23:59:50.588Z,14.80
